Time;durP1;ratioP1;P1;durP2;ratioP2;P2;SDS_P1;SDS_P2;PMS_P1;PMS_P2;Temp;Humidity;BMP_temperature;BMP_pressure;BME280_temperature;BME280_humidity;BME280_pressure;Samples;Min_cycle;Max_cycle;Signal;HPM_P1;HPM_P2
2023/04/17 00:02:01;;;;;;;;;2.33;2.00;;;;;20.63;35.63;101987.88;5015268;28;56779;-36
2023/04/17 00:04:27;;;;;;;;;2.50;2.00;;;;;20.64;35.65;101980.81;5015330;28;45312;-36
2023/04/17 00:06:52;;;;;;;;;2.00;2.00;;;;;20.63;35.81;101990.50;5014828;28;45618;-37
2023/04/17 00:09:18;;;;;;;;;5.25;4.00;;;;;20.64;35.54;101986.06;5015509;28;53206;-39
2023/04/17 00:11:43;;;;;;;;;2.00;2.00;;;;;20.62;35.74;101980.88;5015646;28;45393;-42
2023/04/17 00:14:08;;;;;;;;;3.00;2.00;;;;;20.62;36.00;101980.88;5014959;28;59067;-37
2023/04/17 00:16:34;;;;;;;;;2.50;2.00;;;;;20.61;35.63;101980.94;5015809;28;45362;-36
2023/04/17 00:18:59;;;;;;;;;2.33;2.33;;;;;20.61;35.83;101975.69;5013733;28;68112;-36
2023/04/17 00:21:25;;;;;;;;;3.25;2.75;;;;;20.60;35.78;101964.25;5014887;28;57236;-42
2023/04/17 00:23:50;;;;;;;;;1.00;1.00;;;;;20.59;36.07;101959.06;5015705;28;45388;-45
2023/04/17 00:26:15;;;;;;;;;2.75;2.75;;;;;20.58;35.81;101960.81;5015983;28;45541;-38
2023/04/17 00:28:41;;;;;;;;;3.00;3.00;;;;;20.60;36.05;101963.41;5015555;28;45241;-44
2023/04/17 00:31:06;;;;;;;;;3.00;3.00;;;;;20.59;35.79;101957.28;5018470;28;56741;-45
2023/04/17 00:33:31;;;;;;;;;2.00;2.00;;;;;20.59;36.19;101962.53;5018426;28;53935;-42
2023/04/17 00:35:57;;;;;;;;;2.00;2.00;;;;;20.57;36.02;101959.09;5017630;28;45576;-44
2023/04/17 00:38:22;;;;;;;;;3.75;3.25;;;;;20.57;35.82;101959.09;5018696;28;45479;-45
2023/04/17 00:40:47;;;;;;;;;2.00;2.00;;;;;20.55;35.83;101955.69;5019129;28;45258;-36
2023/04/17 00:43:13;;;;;;;;;1.50;1.50;;;;;20.54;36.20;101957.44;5018896;28;45340;-36
2023/04/17 00:45:40;;;;;;;;;2.00;2.00;;;;;20.54;35.79;101954.81;5018859;28;45254;-37
2023/04/17 00:48:07;;;;;;;;;3.50;2.25;;;;;20.54;36.01;101948.72;5018517;28;46138;-36
2023/04/17 00:50:33;;;;;;;;;2.00;2.00;;;;;20.54;35.81;101953.97;5018594;28;45478;-39
2023/04/17 00:52:59;;;;;;;;;2.75;2.75;;;;;20.54;36.37;101954.81;5018679;28;45460;-36
2023/04/17 00:55:26;;;;;;;;;3.00;2.50;;;;;20.54;36.16;101943.44;5018678;28;45248;-36
2023/04/17 00:57:52;;;;;;;;;2.00;2.00;;;;;20.54;35.84;101943.44;5018414;28;46475;-37
2023/04/17 01:00:17;;;;;;;;;2.00;2.00;;;;;20.52;36.44;101935.56;5018676;28;45431;-36
2023/04/17 01:02:44;;;;;;;;;2.00;2.00;;;;;20.52;36.04;101932.09;5018634;28;45401;-36
2023/04/17 01:05:09;;;;;;;;;2.25;2.25;;;;;20.51;36.08;101933.84;5018657;28;45221;-38
2023/04/17 01:07:35;;;;;;;;;4.50;2.50;;;;;20.52;36.04;101934.72;5018244;28;45523;-36
2023/04/17 01:10:01;;;;;;;;;2.00;2.00;;;;;20.51;36.32;101927.75;5018330;28;45391;-37
2023/04/17 01:12:26;;;;;;;;;3.00;3.00;;;;;20.49;35.98;101930.44;5018366;28;45249;-45
2023/04/17 01:14:55;;;;;;;;;3.50;1.75;;;;;20.51;36.05;101927.75;5018671;28;45281;-37
2023/04/17 01:17:22;;;;;;;;;2.75;2.75;;;;;20.50;36.29;101931.28;5018499;28;46343;-44
2023/04/17 01:19:48;;;;;;;;;3.00;3.00;;;;;20.49;36.10;101930.44;5018266;28;45434;-44
2023/04/17 01:22:17;;;;;;;;;1.75;1.75;;;;;20.50;36.37;101933.94;5018026;28;45346;-40
2023/04/17 01:24:43;;;;;;;;;1.00;1.00;;;;;20.49;36.50;101927.81;5018418;28;45306;-45
2023/04/17 01:27:08;;;;;;;;;3.75;2.00;;;;;20.48;36.19;101927.84;5017998;28;46360;-44
2023/04/17 01:29:34;;;;;;;;;1.50;1.50;;;;;20.48;36.18;101923.47;5016566;28;45453;-42
2023/04/17 01:32:00;;;;;;;;;1.00;1.00;;;;;20.47;36.24;101927.00;5018073;28;45395;-41
2023/04/17 01:34:25;;;;;;;;;2.25;2.00;;;;;20.48;36.57;101928.72;5018022;28;45379;-46
2023/04/17 01:36:51;;;;;;;;;2.25;2.25;;;;;20.47;36.17;101926.13;5018082;28;46408;-46
2023/04/17 01:39:16;;;;;;;;;2.00;2.00;;;;;20.47;36.15;101926.13;5017768;28;45347;-42
2023/04/17 01:41:42;;;;;;;;;2.75;1.25;;;;;20.46;36.06;101929.69;5017673;28;45359;-48
2023/04/17 01:44:07;;;;;;;;;2.00;2.00;;;;;20.46;36.29;101929.69;5017953;28;45501;-40
2023/04/17 01:46:32;;;;;;;;;2.00;2.00;;;;;20.45;36.49;101934.09;5017552;28;46649;-41
2023/04/17 01:48:58;;;;;;;;;3.50;3.00;;;;;20.47;36.59;101931.41;5017689;28;45353;-39
2023/04/17 01:51:23;;;;;;;;;2.25;2.00;;;;;20.49;36.32;101932.22;5018113;28;45283;-36
2023/04/17 01:53:49;;;;;;;;;2.50;2.00;;;;;20.51;36.05;101930.38;5017796;28;45205;-36
2023/04/17 01:56:14;;;;;;;;;2.75;2.75;;;;;20.57;36.40;101932.75;5024255;28;46183;-37
2023/04/17 01:58:39;;;;;;;;;1.75;1.75;;;;;20.63;36.63;101929.03;5037362;28;45196;-37
2023/04/17 02:01:05;;;;;;;;;3.00;2.50;;;;;20.68;36.60;101930.56;5037554;28;45355;-37
2023/04/17 02:03:31;;;;;;;;;2.50;2.50;;;;;20.77;36.81;101942.56;5037350;28;49261;-36
2023/04/17 02:05:56;;;;;;;;;2.00;2.00;;;;;20.84;37.08;101937.94;5037186;28;46083;-38
2023/04/17 02:08:22;;;;;;;;;1.75;1.75;;;;;20.91;36.84;101936.75;5037454;28;45251;-36
2023/04/17 02:10:47;;;;;;;;;2.25;1.25;;;;;20.97;37.10;101936.53;5037401;28;45297;-37
2023/04/17 02:13:13;;;;;;;;;3.00;2.00;;;;;21.06;36.98;101937.06;5037387;28;45644;-37
2023/04/17 02:15:39;;;;;;;;;3.00;3.00;;;;;21.12;36.83;101936.81;5036936;28;46118;-38
2023/04/17 02:18:05;;;;;;;;;2.50;2.00;;;;;21.18;37.00;101933.94;5037016;28;45347;-39
2023/04/17 02:20:34;;;;;;;;;1.00;1.00;;;;;21.23;36.50;101925.84;5037249;28;45323;-37
2023/04/17 02:23:01;;;;;;;;;1.50;1.50;;;;;21.29;36.61;101929.09;5037131;28;45260;-39
2023/04/17 02:25:27;;;;;;;;;2.00;2.00;;;;;21.33;36.61;101931.63;5037283;28;46469;-38
2023/04/17 02:27:55;;;;;;;;;2.50;2.25;;;;;21.36;36.50;101926.19;5037091;28;46398;-39
2023/04/17 02:30:21;;;;;;;;;2.00;2.00;;;;;21.40;36.30;101917.25;5037008;28;45476;-42
2023/04/17 02:32:46;;;;;;;;;3.00;3.00;;;;;21.41;36.51;101922.44;5037169;28;45263;-41
2023/04/17 02:35:11;;;;;;;;;1.67;1.67;;;;;21.46;36.47;101916.97;5035912;28;67379;-48
2023/04/17 02:37:37;;;;;;;;;2.25;2.00;;;;;21.48;36.61;101920.41;5036723;28;45422;-37
2023/04/17 02:40:06;;;;;;;;;1.50;1.50;;;;;21.50;36.18;101918.56;5036908;28;45308;-36
2023/04/17 02:42:31;;;;;;;;;2.00;2.00;;;;;21.52;36.44;101919.38;5036930;28;45654;-36
2023/04/17 02:44:57;;;;;;;;;3.00;1.75;;;;;21.52;36.55;101919.38;5036426;28;61722;-37
2023/04/17 02:47:22;;;;;;;;;1.00;1.00;;;;;21.53;36.18;101918.44;5036636;28;45231;-36
2023/04/17 02:49:48;;;;;;;;;1.00;1.00;;;;;21.53;36.11;101913.16;5036723;28;45479;-36
2023/04/17 02:52:13;;;;;;;;;2.00;2.00;;;;;21.54;36.36;101914.00;5036284;28;45433;-38
2023/04/17 02:54:38;;;;;;;;;1.25;1.25;;;;;21.55;36.19;101921.84;5034736;28;53741;-41
2023/04/17 02:57:04;;;;;;;;;1.00;1.00;;;;;21.54;36.49;101925.44;5036441;28;45291;-37
2023/04/17 02:59:29;;;;;;;;;2.00;2.00;;;;;21.55;36.44;101924.50;5034520;28;45375;-40
2023/04/17 03:01:58;;;;;;;;;2.00;2.00;;;;;21.54;36.51;101914.88;5037122;28;45516;-38
2023/04/17 03:04:26;;;;;;;;;2.00;2.00;;;;;21.53;36.16;101918.44;5036277;28;47278;-36
2023/04/17 03:06:52;;;;;;;;;2.00;2.00;;;;;21.53;36.31;101915.81;5035191;28;46095;-36
2023/04/17 03:09:21;;;;;;;;;1.00;1.00;;;;;21.53;36.31;101913.16;5036408;28;45423;-38
2023/04/17 03:11:46;;;;;;;;;2.00;2.00;;;;;21.53;36.49;101907.03;5036597;28;45266;-39
2023/04/17 03:14:12;;;;;;;;;2.00;2.00;;;;;21.53;36.12;101918.44;5036123;28;46674;-38
2023/04/17 03:16:37;;;;;;;;;1.00;1.00;;;;;21.53;36.11;101913.16;5036134;28;45312;-36
2023/04/17 03:19:02;;;;;;;;;2.00;2.00;;;;;21.51;36.37;101909.72;5035545;28;63395;-37
2023/04/17 03:21:28;;;;;;;;;3.00;3.00;;;;;21.52;36.31;101911.44;5036515;28;45529;-37
2023/04/17 03:23:53;;;;;;;;;2.00;2.00;;;;;21.50;36.36;101910.66;5036184;28;45628;-38
2023/04/17 03:26:18;;;;;;;;;2.25;0.75;;;;;21.52;36.39;101916.72;5036006;28;47395;-38
2023/04/17 03:28:44;;;;;;;;;2.00;2.00;;;;;21.49;36.18;101906.28;5036182;28;45320;-36
2023/04/17 03:31:09;;;;;;;;;4.00;2.00;;;;;21.50;36.10;101912.44;5036395;28;45554;-38
2023/04/17 03:33:36;;;;;;;;;2.00;2.00;;;;;21.49;36.04;101906.28;5036005;28;45432;-45
2023/04/17 03:36:02;;;;;;;;;3.00;3.00;;;;;21.47;36.22;101908.13;5036048;28;45699;-40
2023/04/17 03:38:27;;;;;;;;;3.00;1.25;;;;;21.47;36.14;101908.13;5035841;28;45232;-38
2023/04/17 03:40:53;;;;;;;;;2.00;2.00;;;;;21.45;36.19;101915.25;5036254;28;45572;-42
2023/04/17 03:43:18;;;;;;;;;2.00;2.00;;;;;21.44;35.98;101917.03;5035979;28;45322;-44
2023/04/17 03:45:43;;;;;;;;;1.75;1.00;;;;;21.42;35.92;101921.53;5035867;28;45442;-45
2023/04/17 03:48:09;;;;;;;;;3.00;2.33;;;;;21.41;36.42;101908.41;5035576;28;54358;-48
2023/04/17 03:50:34;;;;;;;;;2.25;1.25;;;;;21.41;36.38;101926.88;5036155;28;45527;-42
2023/04/17 03:53:00;;;;;;;;;2.25;2.25;;;;;21.40;35.91;101926.00;5036102;28;46497;-46
2023/04/17 03:55:25;;;;;;;;;2.00;2.00;;;;;21.38;36.16;101927.88;5034472;28;45422;-45
2023/04/17 03:57:50;;;;;;;;;2.00;2.00;;;;;21.37;36.16;101928.78;5034085;28;54557;-42
2023/04/17 04:00:16;;;;;;;;;3.00;2.00;;;;;21.37;35.97;101933.19;5036056;28;45399;-45
2023/04/17 04:02:41;;;;;;;;;3.00;2.00;;;;;21.35;36.18;101921.84;5034404;28;45741;-47
2023/04/17 04:05:07;;;;;;;;;3.00;3.00;;;;;21.35;36.27;101935.91;5037549;28;58863;-49
2023/04/17 04:07:32;;;;;;;;;3.50;2.00;;;;;21.35;36.32;101937.66;5039608;28;45696;-48
2023/04/17 04:09:57;;;;;;;;;2.50;2.50;;;;;21.33;35.86;101931.63;5039599;28;45284;-48
2023/04/17 04:12:23;;;;;;;;;2.00;2.00;;;;;21.32;35.95;101936.00;5039294;28;46510;-39
2023/04/17 04:14:49;;;;;;;;;3.00;2.00;;;;;21.30;35.89;101930.81;5039142;28;45232;-40
2023/04/17 04:17:14;;;;;;;;;2.75;2.00;;;;;21.29;35.95;101931.72;5037835;28;45261;-38
2023/04/17 04:19:40;;;;;;;;;3.25;3.25;;;;;21.28;35.98;101931.78;5039277;28;45574;-41
2023/04/17 04:22:05;;;;;;;;;2.25;2.00;;;;;21.27;36.16;101932.72;5038842;28;47185;-39
2023/04/17 04:24:32;;;;;;;;;6.00;2.00;;;;;21.26;36.02;101931.84;5039080;28;45462;-37
2023/04/17 04:27:04;;;;;;;;;2.50;2.50;;;;;21.24;36.19;101933.69;5038943;28;45329;-42
2023/04/17 04:29:32;;;;;;;;;3.00;3.00;;;;;21.24;36.03;101927.56;5039260;28;45236;-43
2023/04/17 04:31:58;;;;;;;;;2.00;2.00;;;;;21.23;35.74;101936.41;5038751;28;46085;-42
2023/04/17 04:34:24;;;;;;;;;2.00;2.00;;;;;21.21;35.91;101933.84;5038605;28;45303;-47
2023/04/17 04:36:53;;;;;;;;;3.00;3.00;;;;;21.22;36.00;101942.59;5037430;28;45428;-44
2023/04/17 04:39:19;;;;;;;;;2.00;2.00;;;;;21.20;36.15;101942.66;5039100;28;45501;-49
2023/04/17 04:41:46;;;;;;;;;2.00;2.00;;;;;21.17;36.15;101945.41;5038599;28;46403;-35
2023/04/17 04:44:11;;;;;;;;;2.00;1.75;;;;;21.17;36.22;101948.06;5038555;28;45240;-38
2023/04/17 04:46:36;;;;;;;;;3.00;2.75;;;;;21.16;35.95;101948.97;5038782;28;45293;-39
2023/04/17 04:49:02;;;;;;;;;2.50;2.00;;;;;21.13;36.09;101942.03;5039082;28;45526;-41
2023/04/17 04:51:27;;;;;;;;;3.00;3.00;;;;;21.13;36.10;101949.09;5037725;28;63338;-36
2023/04/17 04:53:52;;;;;;;;;4.00;3.00;;;;;21.12;36.35;101947.38;5038469;28;45232;-36
2023/04/17 04:56:18;;;;;;;;;4.50;3.75;;;;;21.10;36.10;101954.50;5038489;28;45521;-36
2023/04/17 04:58:43;;;;;;;;;3.50;2.75;;;;;21.09;35.85;101958.91;5038663;28;45347;-35
2023/04/17 05:01:08;;;;;;;;;4.00;4.00;;;;;21.07;35.44;101947.53;5038264;28;45406;-35
2023/04/17 05:03:33;;;;;;;;;3.00;3.00;;;;;21.05;35.68;101951.19;5038258;28;51352;-37
2023/04/17 05:05:59;;;;;;;;;4.00;3.25;;;;;21.04;35.96;101957.38;5038407;28;45290;-36
2023/04/17 05:08:24;;;;;;;;;3.00;3.00;;;;;21.04;36.32;101952.09;5038356;28;45367;-35
2023/04/17 05:10:49;;;;;;;;;2.00;2.00;;;;;21.01;36.40;101946.00;5038014;28;45331;-36
2023/04/17 05:13:15;;;;;;;;;2.25;2.25;;;;;21.03;36.29;101950.38;5038228;28;45276;-36
2023/04/17 05:15:40;;;;;;;;;3.00;3.00;;;;;21.01;36.17;101945.16;5037365;28;45536;-36
2023/04/17 05:18:06;;;;;;;;;5.67;3.33;;;;;21.01;36.06;101951.28;5037843;28;56817;-37
2023/04/17 05:20:31;;;;;;;;;3.00;3.00;;;;;21.00;36.01;101951.34;5037853;28;45479;-36
2023/04/17 05:22:56;;;;;;;;;4.25;4.25;;;;;21.00;36.22;101948.72;5037147;28;45437;-37
2023/04/17 05:25:22;;;;;;;;;4.00;3.75;;;;;20.99;36.60;101955.78;5038216;28;45871;-36
2023/04/17 05:27:47;;;;;;;;;5.50;3.75;;;;;20.97;36.48;101947.06;5037858;28;45539;-36
2023/04/17 05:30:13;;;;;;;;;4.50;4.00;;;;;20.97;36.04;101957.63;5037756;28;45719;-37
2023/04/17 05:32:39;;;;;;;;;4.25;4.25;;;;;20.98;36.20;101953.19;5037850;28;45797;-36
2023/04/17 05:35:05;;;;;;;;;4.00;4.00;;;;;20.97;36.43;101964.66;5038277;28;45579;-37
2023/04/17 05:37:30;;;;;;;;;5.25;4.50;;;;;20.96;36.22;101961.16;5037812;28;45410;-38
2023/04/17 05:39:56;;;;;;;;;4.75;4.75;;;;;20.95;36.33;101948.03;5037359;28;46156;-39
2023/04/17 05:42:21;;;;;;;;;7.00;7.00;;;;;20.94;36.38;101952.47;5037310;28;45414;-36
2023/04/17 05:44:46;;;;;;;;;5.67;5.67;;;;;20.91;36.64;101955.22;5036799;28;61025;-38
2023/04/17 05:47:12;;;;;;;;;6.00;6.00;;;;;20.90;36.39;101953.47;5036781;28;45473;-36
2023/04/17 05:49:38;;;;;;;;;6.25;5.00;;;;;20.87;36.46;101956.25;5035332;28;46319;-38
2023/04/17 05:52:03;;;;;;;;;6.00;5.00;;;;;20.86;36.48;101949.28;5022326;28;46063;-35
2023/04/17 05:54:29;;;;;;;;;6.00;6.00;;;;;20.91;36.67;101957.00;5017122;28;45736;-36
2023/04/17 05:56:55;;;;;;;;;6.00;6.00;;;;;20.87;36.36;101948.38;5017705;28;45268;-40
2023/04/17 05:59:21;;;;;;;;;8.00;6.50;;;;;20.91;36.24;101952.56;5017316;28;46388;-43
2023/04/17 06:01:47;;;;;;;;;5.50;5.50;;;;;20.91;36.77;101957.84;5017412;28;45447;-37
2023/04/17 06:04:12;;;;;;;;;1.00;1.00;;;;;20.91;36.58;101951.72;5016645;28;45501;-39
2023/04/17 06:06:38;;;;;;;;;7.75;5.25;;;;;20.92;36.43;101958.72;5017759;28;45322;-36
2023/04/17 06:09:04;;;;;;;;;7.67;6.33;;;;;20.93;36.43;101961.28;5016433;28;65208;-37
2023/04/17 06:11:30;;;;;;;;;5.25;4.25;;;;;20.91;36.80;101963.13;5017108;28;45523;-36
2023/04/17 06:13:55;;;;;;;;;7.00;6.50;;;;;20.92;36.79;101956.94;5017347;28;45173;-38
2023/04/17 06:16:21;;;;;;;;;6.00;6.00;;;;;20.94;36.63;101963.00;5016925;28;45272;-36
2023/04/17 06:18:46;;;;;;;;;6.75;5.25;;;;;20.93;36.72;101961.28;5016808;28;46469;-36
2023/04/17 06:21:11;;;;;;;;;5.00;5.00;;;;;20.93;36.78;101957.81;5016711;28;45372;-45
2023/04/17 06:23:36;;;;;;;;;6.50;6.00;;;;;20.93;36.78;101961.28;5017454;28;45376;-43
2023/04/17 06:26:02;;;;;;;;;6.00;5.00;;;;;20.91;36.84;101957.84;5016133;28;51884;-42
2023/04/17 06:28:27;;;;;;;;;5.00;5.00;;;;;20.93;37.04;101966.56;5016026;28;45374;-39
2023/04/17 06:30:52;;;;;;;;;7.25;6.25;;;;;20.93;36.85;101971.81;5016828;28;45412;-42
2023/04/17 06:33:18;;;;;;;;;5.50;5.50;;;;;20.93;36.79;101974.47;5016938;28;45568;-46
2023/04/17 06:35:43;;;;;;;;;7.67;6.00;;;;;20.93;36.69;101969.19;5016069;28;57633;-44
2023/04/17 06:38:08;;;;;;;;;7.00;5.00;;;;;20.93;36.96;101973.63;5015761;28;68269;-46
2023/04/17 06:40:34;;;;;;;;;8.00;5.75;;;;;20.92;37.29;101971.91;5016608;28;45493;-50
2023/04/17 06:42:59;;;;;;;;;7.00;7.00;;;;;20.92;36.83;101975.38;5016826;28;45311;-44
2023/04/17 06:45:24;;;;;;;;;5.00;5.00;;;;;20.91;37.23;101972.81;5016706;28;45328;-43
2023/04/17 06:47:50;;;;;;;;;8.75;5.25;;;;;20.90;37.30;101977.19;5016360;28;46881;-42
2023/04/17 06:50:15;;;;;;;;;6.00;6.00;;;;;20.89;37.40;101977.28;5021730;28;49940;-36
2023/04/17 06:52:41;;;;;;;;;5.25;5.00;;;;;20.87;37.01;101985.25;5036591;28;45458;-39
2023/04/17 06:55:07;;;;;;;;;4.25;4.25;;;;;20.89;37.02;101987.81;5037043;28;45294;-37
2023/04/17 06:57:32;;;;;;;;;7.25;5.50;;;;;20.89;37.09;101978.13;5036368;28;45496;-43
2023/04/17 06:59:58;;;;;;;;;4.50;4.50;;;;;20.89;37.31;101985.19;5036471;28;45449;-38
2023/04/17 07:02:23;;;;;;;;;6.75;6.00;;;;;20.85;37.13;101987.06;5036583;28;45235;-37
2023/04/17 07:04:49;;;;;;;;;6.00;6.00;;;;;20.88;36.99;101988.72;5036026;28;52452;-37
2023/04/17 07:07:14;;;;;;;;;5.75;5.75;;;;;20.86;37.53;101988.81;5036216;28;45232;-38
2023/04/17 07:09:41;;;;;;;;;6.25;6.25;;;;;20.87;36.95;101998.44;5036629;28;45299;-36
2023/04/17 07:12:07;;;;;;;;;10.00;5.00;;;;;20.87;37.18;101994.91;5036555;28;45338;-37
2023/04/17 07:14:34;;;;;;;;;8.75;6.00;;;;;20.86;37.49;102001.97;5036432;28;45489;-36
2023/04/17 07:17:00;;;;;;;;;8.00;5.50;;;;;20.85;37.26;102001.09;5036015;28;46366;-36
2023/04/17 07:19:25;;;;;;;;;5.50;5.25;;;;;20.84;37.24;102004.66;5036003;28;45957;-36
2023/04/17 07:21:50;;;;;;;;;8.00;6.00;;;;;20.85;37.27;102002.88;5036008;28;45400;-37
2023/04/17 07:24:16;;;;;;;;;8.00;7.67;;;;;20.84;36.98;102003.81;5036018;28;45514;-36
2023/04/17 07:26:42;;;;;;;;;6.00;6.00;;;;;20.83;37.08;102010.00;5035757;28;64357;-37
2023/04/17 07:29:07;;;;;;;;;8.00;6.00;;;;;20.83;37.10;102010.00;5036223;28;45354;-34
2023/04/17 07:31:32;;;;;;;;;6.25;6.25;;;;;20.83;37.48;102013.50;5035338;28;45345;-35
2023/04/17 07:33:58;;;;;;;;;6.00;6.00;;;;;20.82;37.34;102016.19;5035544;28;45326;-35
2023/04/17 07:36:23;;;;;;;;;5.25;5.25;;;;;20.81;37.49;102025.88;5035803;28;46424;-34
2023/04/17 07:38:48;;;;;;;;;6.25;5.50;;;;;20.80;37.15;102021.50;5037844;28;45235;-35
2023/04/17 07:41:14;;;;;;;;;8.50;6.75;;;;;20.81;37.41;102020.59;5039676;28;45368;-41
2023/04/17 07:43:40;;;;;;;;;7.75;7.00;;;;;20.82;37.42;102024.97;5040101;28;45365;-41
2023/04/17 07:46:05;;;;;;;;;5.50;4.00;;;;;20.81;37.57;102023.22;5039369;28;45540;-40
2023/04/17 07:48:30;;;;;;;;;7.00;6.00;;;;;20.79;37.76;102016.28;5039197;28;46411;-40
2023/04/17 07:50:58;;;;;;;;;6.33;5.00;;;;;20.80;37.57;102025.91;5038898;28;53660;-40
2023/04/17 07:53:24;;;;;;;;;6.25;5.25;;;;;20.80;37.88;102018.00;5039663;28;45362;-40
2023/04/17 07:55:51;;;;;;;;;7.00;6.50;;;;;20.80;37.39;102016.25;5039149;28;46174;-41
2023/04/17 07:58:16;;;;;;;;;8.00;6.75;;;;;20.78;37.72;102015.44;5039298;28;45403;-41
2023/04/17 08:00:42;;;;;;;;;7.00;7.00;;;;;20.79;37.88;102026.81;5039798;28;45487;-42
2023/04/17 08:03:07;;;;;;;;;6.75;6.00;;;;;20.79;37.90;102021.56;5039388;28;45551;-41
2023/04/17 08:05:35;;;;;;;;;8.25;6.00;;;;;20.79;37.24;102026.81;5039065;28;46120;-37
2023/04/17 08:08:00;;;;;;;;;8.00;5.00;;;;;20.78;37.45;102022.50;5039134;28;45498;-43
2023/04/17 08:10:27;;;;;;;;;6.25;6.00;;;;;20.77;37.46;102026.03;5039221;28;45391;-41
2023/04/17 08:12:52;;;;;;;;;8.00;7.00;;;;;20.78;37.97;102027.75;5038130;28;45557;-40
2023/04/17 08:15:17;;;;;;;;;6.75;6.75;;;;;20.77;37.60;102023.41;5038784;28;45516;-41
2023/04/17 08:17:43;;;;;;;;;5.50;5.50;;;;;20.75;37.65;102019.97;5039231;28;45258;-44
2023/04/17 08:20:12;;;;;;;;;7.75;6.00;;;;;20.76;37.91;102024.31;5038555;28;52986;-44
2023/04/17 08:22:42;;;;;;;;;6.00;5.00;;;;;20.77;37.59;102029.53;5039029;28;45441;-38
2023/04/17 08:25:08;;;;;;;;;8.00;6.75;;;;;20.76;37.96;102025.16;5038827;28;45505;-41
2023/04/17 08:27:39;;;;;;;;;8.50;6.50;;;;;20.77;37.84;102023.41;5038717;28;45380;-42
2023/04/17 08:30:05;;;;;;;;;11.50;6.50;;;;;20.75;37.59;102027.88;5038797;28;45399;-35
2023/04/17 08:32:42;;;;;;;;;7.75;7.25;;;;;20.74;37.80;102031.38;5038876;28;45489;-36
2023/04/17 08:35:10;;;;;;;;;10.50;7.00;;;;;20.73;37.38;102037.56;5038589;28;45635;-37
2023/04/17 08:37:35;;;;;;;;;8.25;6.25;;;;;20.70;37.63;102026.22;5038565;28;45323;-37
2023/04/17 08:40:03;;;;;;;;;11.00;7.50;;;;;20.68;37.82;102035.94;5038893;28;46044;-36
2023/04/17 08:42:30;;;;;;;;;8.50;7.00;;;;;20.67;37.95;102034.22;5038872;28;45219;-42
2023/04/17 08:44:59;;;;;;;;;7.50;7.50;;;;;20.67;37.74;102034.22;5038494;28;45426;-36
2023/04/17 08:47:25;;;;;;;;;10.50;7.75;;;;;20.65;37.45;102035.22;5038388;28;45334;-36
2023/04/17 08:49:50;;;;;;;;;5.50;5.50;;;;;20.64;37.33;102030.84;5037286;28;50325;-36
2023/04/17 08:52:15;;;;;;;;;5.33;5.33;;;;;20.64;37.84;102018.56;5038387;28;54613;-37
2023/04/17 08:54:41;;;;;;;;;7.50;6.00;;;;;20.63;37.39;102022.09;5038176;28;46172;-36
2023/04/17 08:57:06;;;;;;;;;7.67;7.00;;;;;20.62;37.61;102015.13;5038054;28;52444;-36
2023/04/17 08:59:32;;;;;;;;;8.75;8.25;;;;;20.62;37.33;102019.50;5038392;28;45320;-36
2023/04/17 09:02:08;;;;;;;;;7.00;7.00;;;;;20.62;37.68;102008.97;5038663;28;45468;-35
2023/04/17 09:04:37;;;;;;;;;10.25;7.25;;;;;20.62;37.47;102028.28;5038210;28;45588;-36
2023/04/17 09:07:04;;;;;;;;;7.00;5.00;;;;;20.63;37.77;102021.22;5038264;28;45228;-40
2023/04/17 09:09:46;;;;;;;;;10.25;7.75;;;;;20.64;37.54;102017.69;5038298;28;45372;-36
2023/04/17 09:12:12;;;;;;;;;10.25;8.75;;;;;20.64;37.89;102017.69;5038419;28;45594;-38
2023/04/17 09:14:37;;;;;;;;;7.00;7.00;;;;;20.63;37.86;102014.22;5038071;28;46139;-40
2023/04/17 09:17:02;;;;;;;;;6.00;6.00;;;;;20.64;37.78;102020.31;5038023;28;45271;-39
2023/04/17 09:19:28;;;;;;;;;10.25;8.00;;;;;20.64;37.88;102018.56;5038189;28;45316;-36
2023/04/17 09:21:53;;;;;;;;;8.00;6.00;;;;;20.64;37.42;102008.03;5037911;28;45427;-37
2023/04/17 09:24:32;;;;;;;;;9.00;6.50;;;;;20.65;37.77;102011.50;5037702;28;45538;-40
2023/04/17 09:27:25;;;;;;;;;10.50;9.00;;;;;20.64;37.82;102008.03;5037957;28;45355;-39
2023/04/17 09:30:03;;;;;;;;;12.00;10.00;;;;;20.65;38.02;102015.00;5037941;28;45404;-43
2023/04/17 09:32:30;;;;;;;;;11.00;8.25;;;;;20.65;38.39;102022.91;5038060;28;45244;-44
2023/04/17 09:34:57;;;;;;;;;7.75;7.50;;;;;20.65;38.16;102015.00;5037659;28;46360;-45
2023/04/17 09:37:23;;;;;;;;;10.00;8.00;;;;;20.63;38.24;102016.84;5037909;28;45882;-42
2023/04/17 09:40:00;;;;;;;;;9.50;9.50;;;;;20.65;38.13;102022.91;5038133;28;45303;-37
2023/04/17 09:42:26;;;;;;;;;10.50;7.75;;;;;20.63;38.54;102031.78;5037914;28;45474;-40
2023/04/17 09:44:53;;;;;;;;;8.00;6.00;;;;;20.61;38.54;102016.03;5036250;28;48028;-40
2023/04/17 09:47:20;;;;;;;;;9.75;8.00;;;;;20.61;38.51;102026.56;5037832;28;45202;-37
2023/04/17 09:49:51;;;;;;;;;12.00;9.00;;;;;20.62;38.58;102019.50;5038140;28;45776;-36
2023/04/17 09:52:25;;;;;;;;;10.50;10.50;;;;;20.62;38.10;102014.25;5038308;28;45343;-37
2023/04/17 09:54:52;;;;;;;;;10.00;9.50;;;;;20.62;37.91;102008.97;5035751;28;46326;-41
2023/04/17 09:57:18;;;;;;;;;10.50;10.00;;;;;20.62;38.40;102015.13;5037793;28;45339;-38
2023/04/17 09:59:46;;;;;;;;;15.75;12.00;;;;;20.60;37.95;102016.94;5037409;28;45372;-40
2023/04/17 10:02:13;;;;;;;;;13.00;11.50;;;;;20.59;38.22;102009.94;5037499;28;45244;-38
2023/04/17 10:04:42;;;;;;;;;13.00;10.50;;;;;20.62;38.16;102017.75;5035920;28;47983;-39
2023/04/17 10:07:08;;;;;;;;;13.75;10.75;;;;;20.63;38.53;102016.84;5037359;28;45391;-38
2023/04/17 10:09:33;;;;;;;;;14.75;12.25;;;;;20.62;38.70;102020.38;5037398;28;45291;-39
2023/04/17 10:12:01;;;;;;;;;15.25;12.50;;;;;20.63;38.17;102030.00;5037484;28;45636;-41
2023/04/17 10:14:31;;;;;;;;;17.25;14.25;;;;;20.64;38.73;102031.72;5037080;28;46642;-36
2023/04/17 10:16:56;;;;;;;;;23.50;18.25;;;;;20.64;38.11;102020.31;5036952;28;45437;-36
2023/04/17 10:19:30;;;;;;;;;24.25;20.00;;;;;20.63;38.67;102022.09;5037570;28;45338;-38
2023/04/17 10:22:18;;;;;;;;;32.75;30.50;;;;;20.65;38.33;102019.41;5037060;28;45479;-39
2023/04/17 10:24:46;;;;;;;;;36.75;31.50;;;;;20.64;38.97;102013.28;5024390;28;46141;-36
2023/04/17 10:27:23;;;;;;;;;45.25;35.00;;;;;20.64;38.35;102008.03;5036855;28;45866;-36
2023/04/17 10:29:59;;;;;;;;;46.00;34.00;;;;;20.65;38.58;102015.00;5037291;28;45447;-39
2023/04/17 10:32:29;;;;;;;;;47.50;36.25;;;;;20.63;38.96;102014.22;5037159;28;45269;-39
2023/04/17 10:34:56;;;;;;;;;53.50;40.75;;;;;20.64;38.91;102010.66;5036760;28;45418;-36
2023/04/17 10:37:50;;;;;;;;;58.25;44.75;;;;;20.64;38.90;102009.78;5037026;28;45817;-38
2023/04/17 10:40:26;;;;;;;;;61.75;44.75;;;;;20.63;38.66;102011.56;5037043;28;45441;-37
2023/04/17 10:43:13;;;;;;;;;62.00;45.75;;;;;20.61;38.87;102000.22;5037319;28;45217;-40
2023/04/17 10:45:52;;;;;;;;;63.25;45.75;;;;;20.60;38.92;101997.66;5036751;28;46531;-40
2023/04/17 10:48:34;;;;;;;;;65.00;47.00;;;;;20.59;38.65;101999.41;5036750;28;45756;-36
2023/04/17 10:51:20;;;;;;;;;70.00;52.00;;;;;20.57;38.60;101995.97;5035289;28;45463;-37
2023/04/17 10:53:46;;;;;;;;;76.50;54.00;;;;;20.55;38.86;101992.56;5022606;28;45404;-42
2023/04/17 10:56:18;;;;;;;;;71.25;52.00;;;;;20.54;38.94;101998.75;5035144;28;46112;-38
2023/04/17 10:58:58;;;;;;;;;78.00;64.25;;;;;20.53;38.62;101995.25;5036391;28;45228;-40
2023/04/17 11:01:28;;;;;;;;;75.75;61.50;;;;;20.53;38.89;101995.25;5036582;28;45246;-38
2023/04/17 11:03:53;;;;;;;;;78.25;63.50;;;;;20.54;38.83;101993.47;5037302;28;45543;-37
2023/04/17 11:06:19;;;;;;;;;74.75;59.00;;;;;20.52;38.79;101987.41;5036691;28;45493;-38
2023/04/17 11:08:46;;;;;;;;;74.25;60.00;;;;;20.54;38.64;101993.47;5036471;28;45657;-41
2023/04/17 11:11:11;;;;;;;;;82.00;60.25;;;;;20.52;38.58;101993.53;5034544;28;45390;-38
2023/04/17 11:13:37;;;;;;;;;80.00;62.33;;;;;20.52;38.42;101996.16;5034215;28;45528;-40
2023/04/17 11:16:03;;;;;;;;;76.33;55.33;;;;;20.53;38.52;101994.41;5035658;28;60130;-42
2023/04/17 11:18:28;;;;;;;;;76.75;57.75;;;;;20.52;38.79;101976.88;5036211;28;45725;-42
2023/04/17 11:20:54;;;;;;;;;74.33;58.33;;;;;20.52;38.48;101987.41;5036567;28;45327;-39